sensor_id;sensor_type;location;lat;lon;timestamp;P1;durP1;ratioP1;P2;durP2;ratioP2
20344;SDS011;10330;48.816;9.278;2023-08-21T00:00:25;8.90;;;5.38;;
20344;SDS011;10330;48.816;9.278;2023-08-21T00:02:51;10.45;;;5.60;;
20344;SDS011;10330;48.816;9.278;2023-08-21T00:05:17;6.45;;;5.13;;
20344;SDS011;10330;48.816;9.278;2023-08-21T00:07:43;6.43;;;5.60;;
20344;SDS011;10330;48.816;9.278;2023-08-21T00:10:10;5.90;;;5.10;;
20344;SDS011;10330;48.816;9.278;2023-08-21T00:12:39;8.60;;;5.30;;
20344;SDS011;10330;48.816;9.278;2023-08-21T00:15:05;11.93;;;5.03;;
20344;SDS011;10330;48.816;9.278;2023-08-21T00:17:32;16.00;;;5.78;;
20344;SDS011;10330;48.816;9.278;2023-08-21T00:19:58;6.95;;;4.97;;
20344;SDS011;10330;48.816;9.278;2023-08-21T00:22:24;7.15;;;5.78;;
20344;SDS011;10330;48.816;9.278;2023-08-21T00:24:50;7.32;;;6.15;;
20344;SDS011;10330;48.816;9.278;2023-08-21T00:27:16;9.02;;;5.03;;
20344;SDS011;10330;48.816;9.278;2023-08-21T00:29:42;12.93;;;6.07;;
20344;SDS011;10330;48.816;9.278;2023-08-21T00:32:09;9.02;;;6.18;;
20344;SDS011;10330;48.816;9.278;2023-08-21T00:34:38;7.20;;;5.35;;
20344;SDS011;10330;48.816;9.278;2023-08-21T00:37:04;6.22;;;5.47;;
20344;SDS011;10330;48.816;9.278;2023-08-21T00:39:30;12.98;;;5.95;;
20344;SDS011;10330;48.816;9.278;2023-08-21T00:41:56;9.13;;;5.72;;
20344;SDS011;10330;48.816;9.278;2023-08-21T00:44:22;7.40;;;5.95;;
20344;SDS011;10330;48.816;9.278;2023-08-21T00:46:49;8.65;;;6.32;;
20344;SDS011;10330;48.816;9.278;2023-08-21T00:49:16;15.70;;;6.65;;
20344;SDS011;10330;48.816;9.278;2023-08-21T00:51:42;6.93;;;5.43;;
20344;SDS011;10330;48.816;9.278;2023-08-21T00:54:10;10.73;;;5.72;;
20344;SDS011;10330;48.816;9.278;2023-08-21T00:56:36;7.78;;;5.85;;
20344;SDS011;10330;48.816;9.278;2023-08-21T00:59:02;6.45;;;5.65;;
20344;SDS011;10330;48.816;9.278;2023-08-21T01:01:28;8.02;;;5.32;;
20344;SDS011;10330;48.816;9.278;2023-08-21T01:03:55;8.57;;;5.38;;
20344;SDS011;10330;48.816;9.278;2023-08-21T01:06:21;10.23;;;5.25;;
20344;SDS011;10330;48.816;9.278;2023-08-21T01:11:49;12.60;;;5.57;;
20344;SDS011;10330;48.816;9.278;2023-08-21T01:17:23;10.25;;;5.60;;
20344;SDS011;10330;48.816;9.278;2023-08-21T01:19:51;9.65;;;5.68;;
20344;SDS011;10330;48.816;9.278;2023-08-21T01:22:18;9.93;;;6.55;;
20344;SDS011;10330;48.816;9.278;2023-08-21T01:24:44;8.02;;;5.43;;
20344;SDS011;10330;48.816;9.278;2023-08-21T01:27:10;7.22;;;6.03;;
20344;SDS011;10330;48.816;9.278;2023-08-21T01:29:39;7.35;;;5.85;;
20344;SDS011;10330;48.816;9.278;2023-08-21T01:32:58;8.52;;;5.40;;
20344;SDS011;10330;48.816;9.278;2023-08-21T01:35:02;7.75;;;5.55;;
20344;SDS011;10330;48.816;9.278;2023-08-21T01:37:30;6.65;;;5.78;;
20344;SDS011;10330;48.816;9.278;2023-08-21T01:40:00;9.27;;;5.53;;
20344;SDS011;10330;48.816;9.278;2023-08-21T01:42:26;7.22;;;5.15;;
20344;SDS011;10330;48.816;9.278;2023-08-21T01:44:52;13.15;;;5.70;;
20344;SDS011;10330;48.816;9.278;2023-08-21T01:47:18;10.50;;;6.03;;
20344;SDS011;10330;48.816;9.278;2023-08-21T01:49:44;5.97;;;5.43;;
20344;SDS011;10330;48.816;9.278;2023-08-21T01:52:12;8.15;;;5.72;;
20344;SDS011;10330;48.816;9.278;2023-08-21T01:54:38;5.60;;;5.10;;
20344;SDS011;10330;48.816;9.278;2023-08-21T01:57:04;10.65;;;6.45;;
20344;SDS011;10330;48.816;9.278;2023-08-21T01:59:30;9.68;;;6.13;;
20344;SDS011;10330;48.816;9.278;2023-08-21T02:01:56;10.75;;;6.28;;
20344;SDS011;10330;48.816;9.278;2023-08-21T02:04:24;9.77;;;6.28;;
20344;SDS011;10330;48.816;9.278;2023-08-21T02:06:50;7.40;;;5.65;;
20344;SDS011;10330;48.816;9.278;2023-08-21T02:09:17;8.80;;;5.82;;
20344;SDS011;10330;48.816;9.278;2023-08-21T02:11:43;7.50;;;6.10;;
20344;SDS011;10330;48.816;9.278;2023-08-21T02:14:09;9.68;;;5.95;;
20344;SDS011;10330;48.816;9.278;2023-08-21T02:16:35;5.70;;;4.95;;
20344;SDS011;10330;48.816;9.278;2023-08-21T02:19:03;6.43;;;5.70;;
20344;SDS011;10330;48.816;9.278;2023-08-21T02:21:29;10.57;;;5.85;;
20344;SDS011;10330;48.816;9.278;2023-08-21T02:23:55;9.60;;;6.10;;
20344;SDS011;10330;48.816;9.278;2023-08-21T02:26:21;9.60;;;5.28;;
20344;SDS011;10330;48.816;9.278;2023-08-21T02:28:47;7.90;;;6.05;;
20344;SDS011;10330;48.816;9.278;2023-08-21T02:31:14;7.88;;;5.63;;
20344;SDS011;10330;48.816;9.278;2023-08-21T02:33:40;8.43;;;5.80;;
20344;SDS011;10330;48.816;9.278;2023-08-21T02:36:06;8.95;;;5.75;;
20344;SDS011;10330;48.816;9.278;2023-08-21T02:38:33;7.53;;;5.55;;
20344;SDS011;10330;48.816;9.278;2023-08-21T02:40:59;6.32;;;5.70;;
20344;SDS011;10330;48.816;9.278;2023-08-21T02:43:25;8.98;;;6.25;;
20344;SDS011;10330;48.816;9.278;2023-08-21T02:45:51;6.75;;;5.82;;
20344;SDS011;10330;48.816;9.278;2023-08-21T02:48:17;7.50;;;5.93;;
20344;SDS011;10330;48.816;9.278;2023-08-21T02:50:43;9.65;;;6.00;;
20344;SDS011;10330;48.816;9.278;2023-08-21T02:53:10;8.93;;;5.63;;
20344;SDS011;10330;48.816;9.278;2023-08-21T02:55:36;7.38;;;5.78;;
20344;SDS011;10330;48.816;9.278;2023-08-21T02:58:02;9.50;;;5.88;;
20344;SDS011;10330;48.816;9.278;2023-08-21T03:00:28;6.15;;;5.47;;
20344;SDS011;10330;48.816;9.278;2023-08-21T03:02:54;7.32;;;6.13;;
20344;SDS011;10330;48.816;9.278;2023-08-21T03:05:20;8.77;;;6.03;;
20344;SDS011;10330;48.816;9.278;2023-08-21T03:07:47;6.80;;;6.03;;
20344;SDS011;10330;48.816;9.278;2023-08-21T03:10:14;7.07;;;5.15;;
20344;SDS011;10330;48.816;9.278;2023-08-21T03:12:40;9.85;;;6.38;;
20344;SDS011;10330;48.816;9.278;2023-08-21T03:15:06;8.77;;;5.97;;
20344;SDS011;10330;48.816;9.278;2023-08-21T03:17:33;6.55;;;5.65;;
20344;SDS011;10330;48.816;9.278;2023-08-21T03:19:59;8.80;;;6.32;;
20344;SDS011;10330;48.816;9.278;2023-08-21T03:22:25;11.68;;;6.07;;
20344;SDS011;10330;48.816;9.278;2023-08-21T03:24:51;6.80;;;6.10;;
20344;SDS011;10330;48.816;9.278;2023-08-21T03:27:18;8.45;;;5.88;;
20344;SDS011;10330;48.816;9.278;2023-08-21T03:29:44;8.73;;;6.30;;
20344;SDS011;10330;48.816;9.278;2023-08-21T03:32:17;8.70;;;5.95;;
20344;SDS011;10330;48.816;9.278;2023-08-21T03:34:43;11.52;;;6.50;;
20344;SDS011;10330;48.816;9.278;2023-08-21T03:37:10;6.38;;;5.72;;
20344;SDS011;10330;48.816;9.278;2023-08-21T03:39:36;11.85;;;7.28;;
20344;SDS011;10330;48.816;9.278;2023-08-21T03:42:02;7.03;;;5.72;;
20344;SDS011;10330;48.816;9.278;2023-08-21T03:44:29;10.57;;;6.32;;
20344;SDS011;10330;48.816;9.278;2023-08-21T03:46:55;7.65;;;6.50;;
20344;SDS011;10330;48.816;9.278;2023-08-21T03:49:21;11.38;;;6.35;;
20344;SDS011;10330;48.816;9.278;2023-08-21T03:51:48;13.80;;;6.90;;
20344;SDS011;10330;48.816;9.278;2023-08-21T03:54:14;8.60;;;6.60;;
20344;SDS011;10330;48.816;9.278;2023-08-21T03:56:40;12.00;;;6.38;;
20344;SDS011;10330;48.816;9.278;2023-08-21T03:59:07;10.93;;;6.00;;
20344;SDS011;10330;48.816;9.278;2023-08-21T04:01:33;10.85;;;6.40;;
20344;SDS011;10330;48.816;9.278;2023-08-21T04:03:59;9.13;;;6.90;;
20344;SDS011;10330;48.816;9.278;2023-08-21T04:06:25;8.32;;;6.20;;
20344;SDS011;10330;48.816;9.278;2023-08-21T04:08:51;7.85;;;6.15;;
20344;SDS011;10330;48.816;9.278;2023-08-21T04:11:18;13.77;;;5.95;;
20344;SDS011;10330;48.816;9.278;2023-08-21T04:13:44;16.23;;;6.45;;
20344;SDS011;10330;48.816;9.278;2023-08-21T04:16:10;12.52;;;6.43;;
20344;SDS011;10330;48.816;9.278;2023-08-21T04:18:37;10.35;;;7.25;;
20344;SDS011;10330;48.816;9.278;2023-08-21T04:21:04;11.32;;;7.22;;
20344;SDS011;10330;48.816;9.278;2023-08-21T04:23:30;11.40;;;7.20;;
20344;SDS011;10330;48.816;9.278;2023-08-21T04:26:00;13.43;;;6.95;;
20344;SDS011;10330;48.816;9.278;2023-08-21T04:28:30;12.07;;;6.90;;
20344;SDS011;10330;48.816;9.278;2023-08-21T04:30:57;10.70;;;6.45;;
20344;SDS011;10330;48.816;9.278;2023-08-21T04:33:30;7.88;;;6.35;;
20344;SDS011;10330;48.816;9.278;2023-08-21T04:35:58;13.38;;;6.40;;
20344;SDS011;10330;48.816;9.278;2023-08-21T04:38:24;6.97;;;5.63;;
20344;SDS011;10330;48.816;9.278;2023-08-21T04:40:51;15.70;;;6.95;;
20344;SDS011;10330;48.816;9.278;2023-08-21T04:43:18;13.95;;;6.72;;
20344;SDS011;10330;48.816;9.278;2023-08-21T04:45:49;11.02;;;6.63;;
20344;SDS011;10330;48.816;9.278;2023-08-21T04:48:17;13.18;;;6.93;;
20344;SDS011;10330;48.816;9.278;2023-08-21T04:50:45;11.38;;;6.30;;
20344;SDS011;10330;48.816;9.278;2023-08-21T04:53:12;12.57;;;7.10;;
20344;SDS011;10330;48.816;9.278;2023-08-21T04:55:39;14.30;;;6.85;;
20344;SDS011;10330;48.816;9.278;2023-08-21T04:58:07;8.70;;;6.70;;
20344;SDS011;10330;48.816;9.278;2023-08-21T05:00:35;10.95;;;6.90;;
20344;SDS011;10330;48.816;9.278;2023-08-21T05:03:02;10.45;;;7.05;;
20344;SDS011;10330;48.816;9.278;2023-08-21T05:05:29;13.75;;;7.13;;
20344;SDS011;10330;48.816;9.278;2023-08-21T05:07:56;8.93;;;6.38;;
20344;SDS011;10330;48.816;9.278;2023-08-21T05:10:23;8.18;;;6.78;;
20344;SDS011;10330;48.816;9.278;2023-08-21T05:12:49;8.25;;;6.57;;
20344;SDS011;10330;48.816;9.278;2023-08-21T05:15:17;10.25;;;7.47;;
20344;SDS011;10330;48.816;9.278;2023-08-21T05:17:45;15.02;;;6.95;;
20344;SDS011;10330;48.816;9.278;2023-08-21T05:20:11;8.40;;;6.03;;
20344;SDS011;10330;48.816;9.278;2023-08-21T05:22:41;15.18;;;7.20;;
20344;SDS011;10330;48.816;9.278;2023-08-21T05:25:09;7.35;;;5.95;;
20344;SDS011;10330;48.816;9.278;2023-08-21T05:27:37;17.77;;;6.70;;
20344;SDS011;10330;48.816;9.278;2023-08-21T05:30:04;12.55;;;7.10;;
20344;SDS011;10330;48.816;9.278;2023-08-21T05:32:32;12.48;;;7.10;;
20344;SDS011;10330;48.816;9.278;2023-08-21T05:34:58;10.45;;;6.95;;
20344;SDS011;10330;48.816;9.278;2023-08-21T05:37:25;15.02;;;7.43;;
20344;SDS011;10330;48.816;9.278;2023-08-21T05:39:53;15.98;;;7.18;;
20344;SDS011;10330;48.816;9.278;2023-08-21T05:42:19;10.95;;;7.45;;
20344;SDS011;10330;48.816;9.278;2023-08-21T05:44:46;10.05;;;6.60;;
20344;SDS011;10330;48.816;9.278;2023-08-21T05:47:12;12.88;;;7.60;;
20344;SDS011;10330;48.816;9.278;2023-08-21T05:49:39;12.98;;;7.78;;
20344;SDS011;10330;48.816;9.278;2023-08-21T05:52:05;11.80;;;7.55;;
20344;SDS011;10330;48.816;9.278;2023-08-21T05:54:31;15.50;;;7.88;;
20344;SDS011;10330;48.816;9.278;2023-08-21T05:56:58;13.40;;;8.05;;
20344;SDS011;10330;48.816;9.278;2023-08-21T05:59:30;10.68;;;8.18;;
20344;SDS011;10330;48.816;9.278;2023-08-21T06:01:58;15.98;;;8.82;;
20344;SDS011;10330;48.816;9.278;2023-08-21T06:04:28;12.23;;;8.60;;
20344;SDS011;10330;48.816;9.278;2023-08-21T06:06:58;15.02;;;8.60;;
20344;SDS011;10330;48.816;9.278;2023-08-21T06:09:25;17.10;;;7.55;;
20344;SDS011;10330;48.816;9.278;2023-08-21T06:11:51;15.88;;;8.70;;
20344;SDS011;10330;48.816;9.278;2023-08-21T06:14:17;15.25;;;8.55;;
20344;SDS011;10330;48.816;9.278;2023-08-21T06:16:44;13.30;;;8.65;;
20344;SDS011;10330;48.816;9.278;2023-08-21T06:19:11;11.13;;;8.38;;
20344;SDS011;10330;48.816;9.278;2023-08-21T06:21:40;15.35;;;8.18;;
20344;SDS011;10330;48.816;9.278;2023-08-21T06:24:06;15.10;;;7.45;;
20344;SDS011;10330;48.816;9.278;2023-08-21T06:26:33;8.90;;;7.45;;
20344;SDS011;10330;48.816;9.278;2023-08-21T06:28:59;13.90;;;7.07;;
20344;SDS011;10330;48.816;9.278;2023-08-21T06:31:26;11.35;;;6.80;;
20344;SDS011;10330;48.816;9.278;2023-08-21T06:33:54;15.57;;;7.95;;
20344;SDS011;10330;48.816;9.278;2023-08-21T06:36:21;10.25;;;7.15;;
20344;SDS011;10330;48.816;9.278;2023-08-21T06:38:47;12.45;;;7.25;;
20344;SDS011;10330;48.816;9.278;2023-08-21T06:41:14;12.27;;;6.72;;
20344;SDS011;10330;48.816;9.278;2023-08-21T06:43:42;13.05;;;6.97;;
20344;SDS011;10330;48.816;9.278;2023-08-21T06:46:08;10.43;;;6.88;;
20344;SDS011;10330;48.816;9.278;2023-08-21T06:48:38;12.32;;;7.28;;
20344;SDS011;10330;48.816;9.278;2023-08-21T06:51:09;7.03;;;6.22;;
20344;SDS011;10330;48.816;9.278;2023-08-21T06:53:41;9.88;;;6.70;;
20344;SDS011;10330;48.816;9.278;2023-08-21T06:56:11;13.98;;;6.35;;
20344;SDS011;10330;48.816;9.278;2023-08-21T06:58:37;9.13;;;6.32;;
20344;SDS011;10330;48.816;9.278;2023-08-21T07:01:05;12.45;;;7.38;;
20344;SDS011;10330;48.816;9.278;2023-08-21T07:03:35;9.38;;;6.50;;
20344;SDS011;10330;48.816;9.278;2023-08-21T07:06:01;9.00;;;6.30;;
20344;SDS011;10330;48.816;9.278;2023-08-21T07:08:28;9.48;;;5.85;;
20344;SDS011;10330;48.816;9.278;2023-08-21T07:10:55;10.95;;;6.13;;
20344;SDS011;10330;48.816;9.278;2023-08-21T07:13:21;10.10;;;7.30;;
20344;SDS011;10330;48.816;9.278;2023-08-21T07:15:48;10.48;;;6.15;;
20344;SDS011;10330;48.816;9.278;2023-08-21T07:18:14;9.13;;;5.88;;
20344;SDS011;10330;48.816;9.278;2023-08-21T07:20:41;8.02;;;6.35;;
20344;SDS011;10330;48.816;9.278;2023-08-21T07:23:07;8.98;;;6.15;;
20344;SDS011;10330;48.816;9.278;2023-08-21T07:25:36;11.65;;;6.00;;
20344;SDS011;10330;48.816;9.278;2023-08-21T07:28:08;11.70;;;6.60;;
20344;SDS011;10330;48.816;9.278;2023-08-21T07:30:40;8.25;;;6.15;;
20344;SDS011;10330;48.816;9.278;2023-08-21T07:33:08;9.73;;;5.95;;
20344;SDS011;10330;48.816;9.278;2023-08-21T07:36:03;11.18;;;6.07;;
20344;SDS011;10330;48.816;9.278;2023-08-21T07:38:30;11.60;;;6.63;;
20344;SDS011;10330;48.816;9.278;2023-08-21T07:41:20;16.83;;;6.78;;
20344;SDS011;10330;48.816;9.278;2023-08-21T10:13:57;8.65;;;4.63;;
20344;SDS011;10330;48.816;9.278;2023-08-21T10:16:23;13.63;;;5.07;;
20344;SDS011;10330;48.816;9.278;2023-08-21T10:18:52;6.70;;;4.50;;
20344;SDS011;10330;48.816;9.278;2023-08-21T10:21:23;10.30;;;3.97;;
20344;SDS011;10330;48.816;9.278;2023-08-21T10:23:55;12.15;;;3.90;;
20344;SDS011;10330;48.816;9.278;2023-08-21T10:26:22;6.70;;;4.13;;
20344;SDS011;10330;48.816;9.278;2023-08-21T10:28:55;12.57;;;4.65;;
20344;SDS011;10330;48.816;9.278;2023-08-21T10:33:54;6.40;;;4.70;;
20344;SDS011;10330;48.816;9.278;2023-08-21T10:36:37;9.98;;;4.47;;
20344;SDS011;10330;48.816;9.278;2023-08-21T10:39:04;9.40;;;3.70;;
20344;SDS011;10330;48.816;9.278;2023-08-21T10:41:38;7.72;;;4.30;;
20344;SDS011;10330;48.816;9.278;2023-08-21T10:44:05;5.13;;;3.88;;
20344;SDS011;10330;48.816;9.278;2023-08-21T10:46:50;5.85;;;4.05;;
20344;SDS011;10330;48.816;9.278;2023-08-21T10:49:37;5.40;;;3.88;;
20344;SDS011;10330;48.816;9.278;2023-08-21T10:52:04;6.28;;;4.22;;
20344;SDS011;10330;48.816;9.278;2023-08-21T10:54:42;6.95;;;3.67;;
20344;SDS011;10330;48.816;9.278;2023-08-21T10:57:09;11.63;;;4.30;;
20344;SDS011;10330;48.816;9.278;2023-08-21T10:59:36;6.28;;;4.25;;
20344;SDS011;10330;48.816;9.278;2023-08-21T11:02:02;7.07;;;5.15;;
20344;SDS011;10330;48.816;9.278;2023-08-21T11:04:28;6.40;;;4.20;;
20344;SDS011;10330;48.816;9.278;2023-08-21T11:06:55;7.78;;;4.20;;
20344;SDS011;10330;48.816;9.278;2023-08-21T11:09:22;7.10;;;4.55;;
20344;SDS011;10330;48.816;9.278;2023-08-21T11:11:48;8.45;;;3.72;;
20344;SDS011;10330;48.816;9.278;2023-08-21T11:14:15;4.45;;;4.00;;
20344;SDS011;10330;48.816;9.278;2023-08-21T11:16:41;10.02;;;4.43;;
20344;SDS011;10330;48.816;9.278;2023-08-21T11:19:07;6.07;;;3.92;;
20344;SDS011;10330;48.816;9.278;2023-08-21T11:21:33;10.45;;;4.10;;
20344;SDS011;10330;48.816;9.278;2023-08-21T11:24:00;6.43;;;4.20;;
20344;SDS011;10330;48.816;9.278;2023-08-21T11:26:26;16.60;;;4.55;;
20344;SDS011;10330;48.816;9.278;2023-08-21T11:28:52;6.38;;;4.13;;
20344;SDS011;10330;48.816;9.278;2023-08-21T11:31:21;17.67;;;4.65;;
20344;SDS011;10330;48.816;9.278;2023-08-21T11:33:50;9.25;;;4.13;;
20344;SDS011;10330;48.816;9.278;2023-08-21T11:36:17;8.20;;;4.00;;
20344;SDS011;10330;48.816;9.278;2023-08-21T11:38:43;5.88;;;3.85;;
20344;SDS011;10330;48.816;9.278;2023-08-21T11:41:25;5.32;;;4.45;;
20344;SDS011;10330;48.816;9.278;2023-08-21T11:43:51;6.00;;;3.95;;
20344;SDS011;10330;48.816;9.278;2023-08-21T11:46:18;7.55;;;3.88;;
20344;SDS011;10330;48.816;9.278;2023-08-21T11:48:44;8.80;;;3.97;;
20344;SDS011;10330;48.816;9.278;2023-08-21T11:51:11;6.88;;;4.00;;
20344;SDS011;10330;48.816;9.278;2023-08-21T11:53:38;11.68;;;4.53;;
20344;SDS011;10330;48.816;9.278;2023-08-21T11:56:10;7.45;;;4.82;;
20344;SDS011;10330;48.816;9.278;2023-08-21T11:58:42;5.18;;;4.55;;
20344;SDS011;10330;48.816;9.278;2023-08-21T12:01:11;8.40;;;4.60;;
20344;SDS011;10330;48.816;9.278;2023-08-21T12:03:45;7.82;;;3.97;;
20344;SDS011;10330;48.816;9.278;2023-08-21T12:06:12;5.18;;;4.45;;
20344;SDS011;10330;48.816;9.278;2023-08-21T12:08:38;5.18;;;3.97;;
20344;SDS011;10330;48.816;9.278;2023-08-21T12:11:05;7.10;;;4.25;;
20344;SDS011;10330;48.816;9.278;2023-08-21T12:13:33;13.25;;;4.88;;
20344;SDS011;10330;48.816;9.278;2023-08-21T12:15:59;5.13;;;3.92;;
20344;SDS011;10330;48.816;9.278;2023-08-21T12:18:25;3.70;;;3.40;;
20344;SDS011;10330;48.816;9.278;2023-08-21T12:20:52;5.20;;;3.60;;
20344;SDS011;10330;48.816;9.278;2023-08-21T12:23:18;10.05;;;3.60;;
20344;SDS011;10330;48.816;9.278;2023-08-21T12:25:44;5.85;;;3.83;;
20344;SDS011;10330;48.816;9.278;2023-08-21T12:28:10;12.43;;;4.22;;
20344;SDS011;10330;48.816;9.278;2023-08-21T12:30:37;6.22;;;4.15;;
20344;SDS011;10330;48.816;9.278;2023-08-21T12:33:03;7.32;;;3.90;;
20344;SDS011;10330;48.816;9.278;2023-08-21T12:35:29;4.38;;;3.97;;
20344;SDS011;10330;48.816;9.278;2023-08-21T12:37:56;7.50;;;3.75;;
20344;SDS011;10330;48.816;9.278;2023-08-21T12:40:31;6.78;;;3.97;;
20344;SDS011;10330;48.816;9.278;2023-08-21T12:42:57;8.30;;;3.95;;
20344;SDS011;10330;48.816;9.278;2023-08-21T12:45:23;11.23;;;3.97;;
20344;SDS011;10330;48.816;9.278;2023-08-21T12:47:50;8.00;;;3.78;;
20344;SDS011;10330;48.816;9.278;2023-08-21T12:50:16;8.93;;;4.30;;
20344;SDS011;10330;48.816;9.278;2023-08-21T12:52:42;5.05;;;3.80;;
20344;SDS011;10330;48.816;9.278;2023-08-21T12:55:10;7.38;;;4.13;;
20344;SDS011;10330;48.816;9.278;2023-08-21T12:57:36;5.68;;;3.65;;
20344;SDS011;10330;48.816;9.278;2023-08-21T13:00:03;5.13;;;3.58;;
20344;SDS011;10330;48.816;9.278;2023-08-21T13:02:30;13.00;;;5.03;;
20344;SDS011;10330;48.816;9.278;2023-08-21T13:04:56;8.95;;;4.05;;
20344;SDS011;10330;48.816;9.278;2023-08-21T13:07:22;6.03;;;3.70;;
20344;SDS011;10330;48.816;9.278;2023-08-21T13:09:48;7.45;;;4.25;;
20344;SDS011;10330;48.816;9.278;2023-08-21T13:12:14;10.23;;;3.78;;
20344;SDS011;10330;48.816;9.278;2023-08-21T13:14:42;8.65;;;4.45;;
20344;SDS011;10330;48.816;9.278;2023-08-21T13:17:08;6.93;;;3.53;;
20344;SDS011;10330;48.816;9.278;2023-08-21T13:19:34;8.65;;;3.83;;
20344;SDS011;10330;48.816;9.278;2023-08-21T13:22:00;5.25;;;3.50;;
20344;SDS011;10330;48.816;9.278;2023-08-21T13:24:26;4.57;;;3.42;;
20344;SDS011;10330;48.816;9.278;2023-08-21T13:26:53;6.22;;;3.75;;
20344;SDS011;10330;48.816;9.278;2023-08-21T13:29:19;7.88;;;3.70;;
20344;SDS011;10330;48.816;9.278;2023-08-21T13:31:46;4.30;;;3.47;;
20344;SDS011;10330;48.816;9.278;2023-08-21T13:34:12;8.20;;;3.22;;
20344;SDS011;10330;48.816;9.278;2023-08-21T13:36:38;8.55;;;3.63;;
20344;SDS011;10330;48.816;9.278;2023-08-21T13:39:04;4.38;;;3.13;;
20344;SDS011;10330;48.816;9.278;2023-08-21T13:41:31;9.07;;;3.50;;
20344;SDS011;10330;48.816;9.278;2023-08-21T13:43:58;9.70;;;3.53;;
20344;SDS011;10330;48.816;9.278;2023-08-21T13:46:24;8.32;;;3.97;;
20344;SDS011;10330;48.816;9.278;2023-08-21T13:48:50;5.47;;;3.50;;
20344;SDS011;10330;48.816;9.278;2023-08-21T13:51:16;10.52;;;3.85;;
20344;SDS011;10330;48.816;9.278;2023-08-21T13:53:42;6.68;;;3.60;;
20344;SDS011;10330;48.816;9.278;2023-08-21T13:56:08;6.57;;;3.30;;
20344;SDS011;10330;48.816;9.278;2023-08-21T13:58:35;5.35;;;2.92;;
20344;SDS011;10330;48.816;9.278;2023-08-21T14:01:01;4.93;;;3.45;;
20344;SDS011;10330;48.816;9.278;2023-08-21T14:03:27;5.50;;;3.20;;
20344;SDS011;10330;48.816;9.278;2023-08-21T14:05:53;4.80;;;3.88;;
20344;SDS011;10330;48.816;9.278;2023-08-21T14:08:19;7.75;;;3.42;;
20344;SDS011;10330;48.816;9.278;2023-08-21T14:10:45;8.82;;;3.90;;
20344;SDS011;10330;48.816;9.278;2023-08-21T14:13:11;4.88;;;3.45;;
20344;SDS011;10330;48.816;9.278;2023-08-21T14:15:37;13.52;;;3.13;;
20344;SDS011;10330;48.816;9.278;2023-08-21T14:18:04;6.20;;;3.33;;
20344;SDS011;10330;48.816;9.278;2023-08-21T14:20:30;11.85;;;3.92;;
20344;SDS011;10330;48.816;9.278;2023-08-21T14:22:56;5.45;;;3.10;;
20344;SDS011;10330;48.816;9.278;2023-08-21T14:25:23;5.55;;;3.55;;
20344;SDS011;10330;48.816;9.278;2023-08-21T14:27:49;5.20;;;3.15;;
20344;SDS011;10330;48.816;9.278;2023-08-21T14:30:15;7.68;;;3.03;;
20344;SDS011;10330;48.816;9.278;2023-08-21T14:32:41;8.98;;;3.33;;
20344;SDS011;10330;48.816;9.278;2023-08-21T14:35:08;3.30;;;3.00;;
20344;SDS011;10330;48.816;9.278;2023-08-21T14:37:34;6.30;;;3.20;;
20344;SDS011;10330;48.816;9.278;2023-08-21T14:40:01;3.35;;;3.05;;
20344;SDS011;10330;48.816;9.278;2023-08-21T14:42:33;3.55;;;3.17;;
20344;SDS011;10330;48.816;9.278;2023-08-21T14:44:59;9.93;;;4.47;;
20344;SDS011;10330;48.816;9.278;2023-08-21T14:47:26;8.02;;;3.03;;
20344;SDS011;10330;48.816;9.278;2023-08-21T14:49:52;6.82;;;3.97;;
20344;SDS011;10330;48.816;9.278;2023-08-21T14:52:18;4.95;;;4.00;;
20344;SDS011;10330;48.816;9.278;2023-08-21T14:54:44;10.05;;;3.45;;
20344;SDS011;10330;48.816;9.278;2023-08-21T14:57:10;7.43;;;4.15;;
20344;SDS011;10330;48.816;9.278;2023-08-21T14:59:36;4.00;;;3.25;;
20344;SDS011;10330;48.816;9.278;2023-08-21T15:02:03;5.57;;;3.33;;
20344;SDS011;10330;48.816;9.278;2023-08-21T15:04:29;6.07;;;3.50;;
20344;SDS011;10330;48.816;9.278;2023-08-21T15:06:55;5.85;;;3.50;;
20344;SDS011;10330;48.816;9.278;2023-08-21T15:09:21;6.88;;;4.20;;
20344;SDS011;10330;48.816;9.278;2023-08-21T15:11:47;9.70;;;3.70;;
20344;SDS011;10330;48.816;9.278;2023-08-21T15:14:14;7.13;;;3.85;;
20344;SDS011;10330;48.816;9.278;2023-08-21T15:16:40;6.78;;;3.67;;
20344;SDS011;10330;48.816;9.278;2023-08-21T15:19:06;3.35;;;3.15;;
20344;SDS011;10330;48.816;9.278;2023-08-21T15:21:32;4.90;;;4.38;;
20344;SDS011;10330;48.816;9.278;2023-08-21T15:23:58;5.00;;;3.03;;
20344;SDS011;10330;48.816;9.278;2023-08-21T15:26:25;3.50;;;3.20;;
20344;SDS011;10330;48.816;9.278;2023-08-21T15:28:51;7.00;;;3.22;;
20344;SDS011;10330;48.816;9.278;2023-08-21T15:31:17;6.20;;;4.00;;
20344;SDS011;10330;48.816;9.278;2023-08-21T15:33:43;3.83;;;3.15;;
20344;SDS011;10330;48.816;9.278;2023-08-21T15:36:10;9.02;;;3.85;;
20344;SDS011;10330;48.816;9.278;2023-08-21T15:38:36;5.88;;;4.15;;
20344;SDS011;10330;48.816;9.278;2023-08-21T15:41:02;5.63;;;4.20;;
20344;SDS011;10330;48.816;9.278;2023-08-21T15:43:28;6.28;;;3.40;;
20344;SDS011;10330;48.816;9.278;2023-08-21T15:45:55;9.60;;;4.32;;
20344;SDS011;10330;48.816;9.278;2023-08-21T15:48:21;4.57;;;4.18;;
20344;SDS011;10330;48.816;9.278;2023-08-21T15:50:47;6.63;;;4.32;;
20344;SDS011;10330;48.816;9.278;2023-08-21T15:53:14;6.28;;;3.95;;
20344;SDS011;10330;48.816;9.278;2023-08-21T15:55:41;5.63;;;3.47;;
20344;SDS011;10330;48.816;9.278;2023-08-21T15:58:07;5.35;;;4.20;;
20344;SDS011;10330;48.816;9.278;2023-08-21T16:00:33;5.88;;;3.85;;
20344;SDS011;10330;48.816;9.278;2023-08-21T16:02:59;5.15;;;3.22;;
20344;SDS011;10330;48.816;9.278;2023-08-21T16:05:25;6.20;;;3.78;;
20344;SDS011;10330;48.816;9.278;2023-08-21T16:07:52;3.85;;;3.42;;
20344;SDS011;10330;48.816;9.278;2023-08-21T16:10:19;6.00;;;3.53;;
20344;SDS011;10330;48.816;9.278;2023-08-21T16:12:45;12.85;;;4.35;;
20344;SDS011;10330;48.816;9.278;2023-08-21T16:15:12;5.40;;;3.38;;
20344;SDS011;10330;48.816;9.278;2023-08-21T16:17:38;6.43;;;3.28;;
20344;SDS011;10330;48.816;9.278;2023-08-21T16:20:05;5.30;;;3.47;;
20344;SDS011;10330;48.816;9.278;2023-08-21T16:22:36;7.30;;;3.55;;
20344;SDS011;10330;48.816;9.278;2023-08-21T16:25:02;7.25;;;3.58;;
20344;SDS011;10330;48.816;9.278;2023-08-21T16:27:30;8.10;;;4.38;;
20344;SDS011;10330;48.816;9.278;2023-08-21T16:29:56;4.22;;;3.67;;
20344;SDS011;10330;48.816;9.278;2023-08-21T16:32:22;5.90;;;3.67;;
20344;SDS011;10330;48.816;9.278;2023-08-21T16:34:48;4.93;;;3.85;;
20344;SDS011;10330;48.816;9.278;2023-08-21T16:37:15;10.73;;;4.90;;
20344;SDS011;10330;48.816;9.278;2023-08-21T16:39:41;3.67;;;3.20;;
20344;SDS011;10330;48.816;9.278;2023-08-21T16:42:08;4.10;;;3.20;;
20344;SDS011;10330;48.816;9.278;2023-08-21T16:44:34;4.53;;;3.47;;
20344;SDS011;10330;48.816;9.278;2023-08-21T16:47:00;8.80;;;4.28;;
20344;SDS011;10330;48.816;9.278;2023-08-21T16:49:26;4.22;;;3.22;;
20344;SDS011;10330;48.816;9.278;2023-08-21T16:51:52;6.93;;;3.90;;
20344;SDS011;10330;48.816;9.278;2023-08-21T16:54:18;3.90;;;3.60;;
20344;SDS011;10330;48.816;9.278;2023-08-21T16:56:44;5.25;;;3.67;;
20344;SDS011;10330;48.816;9.278;2023-08-21T16:59:11;4.65;;;3.55;;
20344;SDS011;10330;48.816;9.278;2023-08-21T17:01:37;9.32;;;3.97;;
20344;SDS011;10330;48.816;9.278;2023-08-21T17:04:03;8.85;;;4.10;;
20344;SDS011;10330;48.816;9.278;2023-08-21T17:06:29;6.30;;;3.97;;
20344;SDS011;10330;48.816;9.278;2023-08-21T17:08:55;7.68;;;3.85;;
20344;SDS011;10330;48.816;9.278;2023-08-21T17:11:21;6.38;;;3.90;;
20344;SDS011;10330;48.816;9.278;2023-08-21T17:13:47;4.30;;;3.38;;
20344;SDS011;10330;48.816;9.278;2023-08-21T17:16:15;5.78;;;3.53;;
20344;SDS011;10330;48.816;9.278;2023-08-21T17:18:42;5.45;;;4.05;;
20344;SDS011;10330;48.816;9.278;2023-08-21T17:21:09;9.32;;;4.13;;